Time;durP1;ratioP1;P1;durP2;ratioP2;P2;SDS_P1;SDS_P2;PMS_P1;PMS_P2;Temp;Humidity;BMP_temperature;BMP_pressure;BME280_temperature;BME280_humidity;BME280_pressure;Samples;Min_cycle;Max_cycle;Signal;HPM_P1;HPM_P2
2021/05/05 00:26:29;;;;;;;2.37;1.85;;;;;;;;;;4582827;28;20104;-65
2021/05/05 00:28:55;;;;;;;2.33;2.08;;;;;;;;;;4150180;34;20126;-66
2021/05/05 00:31:21;;;;;;;3.10;2.25;;;;;;;;;;4146255;34;20122;-65
2021/05/05 00:33:47;;;;;;;2.83;2.17;;;;;;;;;;4138076;34;20127;-65
2021/05/05 00:36:13;;;;;;;4.97;2.10;;;;;;;;;;4137791;34;20535;-65
2021/05/05 00:38:39;;;;;;;2.70;2.00;;;;;;;;;;4138230;34;20123;-65
2021/05/05 00:41:06;;;;;;;3.08;2.10;;;;;;;;;;4125299;34;20158;-65
2021/05/05 00:43:32;;;;;;;2.30;1.75;;;;;;;;;;4125632;34;20112;-64
2021/05/05 00:45:58;;;;;;;1.90;1.80;;;;;;;;;;4138068;34;20162;-65
2021/05/05 00:48:24;;;;;;;3.40;2.00;;;;;;;;;;4137968;34;20127;-65
2021/05/05 00:50:50;;;;;;;8.02;1.85;;;;;;;;;;4137799;34;20119;-63
2021/05/05 00:53:16;;;;;;;2.28;2.08;;;;;;;;;;4125459;34;20121;-64
2021/05/05 00:55:42;;;;;;;2.75;1.87;;;;;;;;;;4137835;34;20111;-64
2021/05/05 00:58:08;;;;;;;2.22;1.73;;;;;;;;;;4125383;34;20522;-64
2021/05/05 01:00:34;;;;;;;3.15;2.42;;;;;;;;;;4125300;34;20194;-64
2021/05/05 01:03:00;;;;;;;4.90;2.45;;;;;;;;;;4125654;34;20115;-64
2021/05/05 01:05:26;;;;;;;2.45;2.25;;;;;;;;;;4137875;34;20205;-64
2021/05/05 01:07:52;;;;;;;2.17;1.98;;;;;;;;;;4137729;34;20158;-65
2021/05/05 01:10:18;;;;;;;2.40;2.10;;;;;;;;;;4137680;34;20211;-64
2021/05/05 01:12:43;;;;;;;3.12;2.05;;;;;;;;;;4137775;34;20130;-64
2021/05/05 01:15:10;;;;;;;3.10;2.50;;;;;;;;;;4137713;34;20551;-64
2021/05/05 01:17:36;;;;;;;3.25;1.92;;;;;;;;;;4137648;34;20137;-64
2021/05/05 01:20:03;;;;;;;2.25;2.05;;;;;;;;;;4137626;34;20138;-64
2021/05/05 01:22:29;;;;;;;2.83;2.55;;;;;;;;;;4137597;34;20088;-64
2021/05/05 01:24:55;;;;;;;1.95;1.77;;;;;;;;;;4137795;34;20142;-65
2021/05/05 01:27:21;;;;;;;2.35;2.10;;;;;;;;;;4140786;34;20178;-64
2021/05/05 01:29:48;;;;;;;1.70;1.60;;;;;;;;;;4138601;34;20125;-64
2021/05/05 01:32:14;;;;;;;2.70;2.03;;;;;;;;;;4138415;34;20099;-64
2021/05/05 01:34:40;;;;;;;2.28;1.70;;;;;;;;;;4151018;34;20206;-65
2021/05/05 01:37:06;;;;;;;1.87;1.67;;;;;;;;;;4138250;34;20223;-64
2021/05/05 01:39:32;;;;;;;2.25;1.80;;;;;;;;;;4150876;34;20268;-64
2021/05/05 01:41:58;;;;;;;2.67;1.70;;;;;;;;;;4151274;34;20115;-64
2021/05/05 01:44:37;;;;;;;1.70;1.55;;;;;;;;;;4151379;34;20195;-64
2021/05/05 01:47:09;;;;;;;1.90;1.70;;;;;;;;;;4154068;34;20127;-65
2021/05/05 01:49:35;;;;;;;2.60;1.73;;;;;;;;;;4155097;34;20207;-66
2021/05/05 01:52:02;;;;;;;2.75;2.03;;;;;;;;;;4151429;34;20178;-64
2021/05/05 01:54:28;;;;;;;1.75;1.50;;;;;;;;;;4150829;34;20210;-64
2021/05/05 01:56:54;;;;;;;3.62;1.67;;;;;;;;;;4150723;34;20240;-64
2021/05/05 01:59:19;;;;;;;3.20;1.70;;;;;;;;;;4151115;34;20183;-64
2021/05/05 02:01:45;;;;;;;2.65;2.12;;;;;;;;;;4145761;34;20131;-65
2021/05/05 02:04:11;;;;;;;2.53;2.05;;;;;;;;;;4125213;34;20207;-65
2021/05/05 02:06:37;;;;;;;2.35;1.90;;;;;;;;;;4137770;34;20159;-65
2021/05/05 02:09:03;;;;;;;2.30;1.70;;;;;;;;;;4138428;34;20142;-65
2021/05/05 02:11:29;;;;;;;2.33;1.60;;;;;;;;;;4137323;34;20129;-65
2021/05/05 02:13:55;;;;;;;3.15;1.90;;;;;;;;;;4137335;34;20545;-65
2021/05/05 02:16:21;;;;;;;2.55;1.80;;;;;;;;;;4124628;34;20151;-65
2021/05/05 02:18:47;;;;;;;3.30;2.08;;;;;;;;;;4137398;34;20119;-64
2021/05/05 02:21:13;;;;;;;4.95;2.12;;;;;;;;;;4137125;34;20673;-65
2021/05/05 02:23:39;;;;;;;2.58;2.03;;;;;;;;;;4137055;34;20088;-65
2021/05/05 02:26:05;;;;;;;1.92;1.77;;;;;;;;;;4137051;34;20174;-65
2021/05/05 02:28:31;;;;;;;2.75;1.80;;;;;;;;;;4139213;34;20095;-65
2021/05/05 02:30:58;;;;;;;1.75;1.65;;;;;;;;;;4138034;34;20470;-64
2021/05/05 02:33:24;;;;;;;1.85;1.70;;;;;;;;;;4150696;34;20095;-63
2021/05/05 02:35:50;;;;;;;1.58;1.40;;;;;;;;;;4150506;34;20529;-63
2021/05/05 02:38:16;;;;;;;1.70;1.60;;;;;;;;;;4150509;34;20107;-63
2021/05/05 02:40:42;;;;;;;1.67;1.48;;;;;;;;;;4150362;34;20554;-63
2021/05/05 02:43:08;;;;;;;1.75;1.60;;;;;;;;;;4138194;34;20207;-63
2021/05/05 02:45:33;;;;;;;2.00;1.80;;;;;;;;;;4150570;34;20522;-64
2021/05/05 02:47:59;;;;;;;2.03;1.70;;;;;;;;;;4150392;34;20198;-62
2021/05/05 02:50:29;;;;;;;1.83;1.50;;;;;;;;;;4150200;34;20110;-63
2021/05/05 02:52:57;;;;;;;2.17;1.60;;;;;;;;;;4150218;34;20109;-65
2021/05/05 02:55:23;;;;;;;1.98;1.80;;;;;;;;;;4150359;34;20115;-63
2021/05/05 02:57:49;;;;;;;1.80;1.70;;;;;;;;;;4148867;34;20460;-63
2021/05/05 03:00:16;;;;;;;2.08;1.75;;;;;;;;;;4150458;34;20239;-63
2021/05/05 03:02:42;;;;;;;5.47;1.90;;;;;;;;;;4150394;34;20122;-64
2021/05/05 03:05:08;;;;;;;3.12;1.75;;;;;;;;;;4148785;34;20143;-64
2021/05/05 03:07:34;;;;;;;2.00;1.83;;;;;;;;;;4150251;34;20135;-64
2021/05/05 03:10:00;;;;;;;1.98;1.50;;;;;;;;;;4150424;34;20115;-64
2021/05/05 03:12:26;;;;;;;2.62;1.67;;;;;;;;;;4137769;34;20123;-65
2021/05/05 03:14:52;;;;;;;2.22;1.77;;;;;;;;;;4138069;34;20188;-65
2021/05/05 03:17:18;;;;;;;3.83;1.83;;;;;;;;;;4149877;34;20118;-65
2021/05/05 03:19:44;;;;;;;2.12;1.73;;;;;;;;;;4137859;34;20126;-65
2021/05/05 03:22:10;;;;;;;3.78;1.70;;;;;;;;;;4150563;34;20114;-64
2021/05/05 03:24:36;;;;;;;2.33;1.90;;;;;;;;;;4137944;34;20206;-64
2021/05/05 03:27:02;;;;;;;1.92;1.77;;;;;;;;;;4137858;34;20150;-64
2021/05/05 03:29:27;;;;;;;3.45;1.70;;;;;;;;;;4150620;34;20213;-65
2021/05/05 03:31:53;;;;;;;2.65;1.70;;;;;;;;;;4137601;34;20119;-65
2021/05/05 03:34:19;;;;;;;1.83;1.65;;;;;;;;;;4149892;34;20127;-65
2021/05/05 03:36:45;;;;;;;3.45;1.77;;;;;;;;;;4149939;34;20146;-65
2021/05/05 03:39:11;;;;;;;2.70;1.98;;;;;;;;;;4126344;34;20094;-65
2021/05/05 03:41:37;;;;;;;5.25;2.00;;;;;;;;;;4150009;34;20134;-65
2021/05/05 03:44:05;;;;;;;8.07;1.80;;;;;;;;;;4149862;34;20193;-64
2021/05/05 03:46:31;;;;;;;3.17;2.15;;;;;;;;;;4149792;34;20618;-65
2021/05/05 03:48:57;;;;;;;3.17;1.80;;;;;;;;;;4137352;34;20139;-65
2021/05/05 03:51:23;;;;;;;2.45;1.90;;;;;;;;;;4149865;34;20504;-65
2021/05/05 03:53:49;;;;;;;4.15;1.98;;;;;;;;;;4137448;34;20135;-63
2021/05/05 03:56:15;;;;;;;2.70;1.80;;;;;;;;;;4136937;34;20144;-63
2021/05/05 03:58:41;;;;;;;1.80;1.70;;;;;;;;;;4149405;34;20129;-64
2021/05/05 04:01:07;;;;;;;2.00;1.70;;;;;;;;;;4149374;34;20111;-63
2021/05/05 04:03:33;;;;;;;3.47;1.90;;;;;;;;;;4151271;34;20130;-64
2021/05/05 04:05:59;;;;;;;2.35;1.70;;;;;;;;;;4157480;34;20114;-62
2021/05/05 04:08:25;;;;;;;3.22;1.80;;;;;;;;;;4156252;34;20190;-63
2021/05/05 04:10:51;;;;;;;2.42;1.80;;;;;;;;;;4154025;34;20138;-63
2021/05/05 04:13:17;;;;;;;2.62;2.15;;;;;;;;;;4151823;34;20135;-63
2021/05/05 04:15:43;;;;;;;5.55;2.58;;;;;;;;;;4138337;34;20131;-63
2021/05/05 04:18:09;;;;;;;2.05;1.55;;;;;;;;;;4150596;34;20149;-63
2021/05/05 04:20:35;;;;;;;4.78;1.80;;;;;;;;;;4149927;34;20115;-63
2021/05/05 04:23:00;;;;;;;2.05;1.55;;;;;;;;;;4149783;34;20123;-63
2021/05/05 04:25:26;;;;;;;3.12;1.73;;;;;;;;;;4137899;34;20110;-62
2021/05/05 04:27:53;;;;;;;3.08;1.92;;;;;;;;;;4152049;34;20118;-63
2021/05/05 04:30:20;;;;;;;1.60;1.50;;;;;;;;;;4139382;34;20216;-63
2021/05/05 04:32:47;;;;;;;4.78;1.95;;;;;;;;;;4151592;34;20194;-63
2021/05/05 04:35:13;;;;;;;1.98;1.58;;;;;;;;;;4151866;34;20114;-63
2021/05/05 04:37:39;;;;;;;3.50;1.62;;;;;;;;;;4151492;34;20530;-63
2021/05/05 04:40:06;;;;;;;4.53;1.80;;;;;;;;;;4151712;34;20107;-62
2021/05/05 04:42:33;;;;;;;3.55;1.90;;;;;;;;;;4151535;34;20139;-63
2021/05/05 04:45:03;;;;;;;6.03;2.12;;;;;;;;;;4138906;34;20538;-64
2021/05/05 04:47:30;;;;;;;2.22;1.67;;;;;;;;;;4151589;34;20182;-63
2021/05/05 04:49:56;;;;;;;2.30;1.70;;;;;;;;;;4139037;34;20198;-64
2021/05/05 04:52:22;;;;;;;3.72;2.00;;;;;;;;;;4151295;34;20096;-63
2021/05/05 04:54:48;;;;;;;4.15;1.70;;;;;;;;;;4151691;34;20134;-64
2021/05/05 04:57:14;;;;;;;5.25;2.05;;;;;;;;;;4151301;34;20107;-64
2021/05/05 04:59:40;;;;;;;2.72;1.77;;;;;;;;;;4151430;34;20130;-63
2021/05/05 05:02:07;;;;;;;3.17;1.50;;;;;;;;;;4151488;34;20134;-64
2021/05/05 05:04:37;;;;;;;2.12;1.60;;;;;;;;;;4139018;34;20142;-62
2021/05/05 05:07:04;;;;;;;3.42;1.70;;;;;;;;;;4151341;34;20131;-62
2021/05/05 05:09:30;;;;;;;1.60;1.50;;;;;;;;;;4150892;34;20111;-64
2021/05/05 05:11:56;;;;;;;3.12;1.55;;;;;;;;;;4151215;34;20122;-64
2021/05/05 05:14:22;;;;;;;1.90;1.65;;;;;;;;;;4151079;34;20134;-65
2021/05/05 05:16:48;;;;;;;8.90;1.85;;;;;;;;;;4151426;34;20133;-64
2021/05/05 05:19:14;;;;;;;2.12;1.60;;;;;;;;;;4151356;34;20135;-63
2021/05/05 05:21:40;;;;;;;5.80;2.47;;;;;;;;;;4150960;34;20547;-63
2021/05/05 05:24:07;;;;;;;2.30;1.60;;;;;;;;;;4151105;34;20130;-64
2021/05/05 05:26:33;;;;;;;2.10;1.50;;;;;;;;;;4151116;34;20145;-64
2021/05/05 05:29:00;;;;;;;7.37;1.90;;;;;;;;;;4151297;34;20540;-64
2021/05/05 05:31:26;;;;;;;1.60;1.50;;;;;;;;;;4151159;34;20188;-64
2021/05/05 05:33:53;;;;;;;4.12;1.77;;;;;;;;;;4151051;34;20132;-64
2021/05/05 05:36:19;;;;;;;2.25;1.73;;;;;;;;;;4151210;34;20191;-64
2021/05/05 05:38:45;;;;;;;2.03;1.60;;;;;;;;;;4150981;34;20205;-64
2021/05/05 05:41:11;;;;;;;4.05;1.58;;;;;;;;;;4150917;34;20096;-65
2021/05/05 05:43:37;;;;;;;2.95;1.70;;;;;;;;;;4150915;34;20095;-64
2021/05/05 05:46:03;;;;;;;3.25;1.73;;;;;;;;;;4138541;34;20212;-64
2021/05/05 05:48:29;;;;;;;3.45;1.70;;;;;;;;;;4150825;34;20139;-65
2021/05/05 05:50:55;;;;;;;2.78;1.58;;;;;;;;;;4150801;34;20106;-63
2021/05/05 05:53:21;;;;;;;1.70;1.60;;;;;;;;;;4150819;34;20138;-64
2021/05/05 05:55:47;;;;;;;2.00;1.55;;;;;;;;;;4150696;34;20207;-63
2021/05/05 05:58:13;;;;;;;3.50;1.67;;;;;;;;;;4150973;34;20146;-64
2021/05/05 06:00:39;;;;;;;2.33;1.52;;;;;;;;;;4150709;34;20554;-63
2021/05/05 06:03:05;;;;;;;2.40;2.00;;;;;;;;;;4151027;34;20129;-62
2021/05/05 06:05:35;;;;;;;3.78;1.42;;;;;;;;;;4150578;34;20215;-63
2021/05/05 06:08:02;;;;;;;4.15;1.77;;;;;;;;;;4151028;34;20150;-63
2021/05/05 06:10:28;;;;;;;1.95;1.37;;;;;;;;;;4150563;34;20099;-63
2021/05/05 06:12:54;;;;;;;7.62;3.60;;;;;;;;;;4151031;34;20210;-63
2021/05/05 06:15:20;;;;;;;2.03;1.70;;;;;;;;;;4150963;34;20559;-64
2021/05/05 06:17:46;;;;;;;1.95;1.40;;;;;;;;;;4150541;34;20142;-64
2021/05/05 06:20:12;;;;;;;3.20;1.50;;;;;;;;;;4150583;34;20231;-63
2021/05/05 06:22:38;;;;;;;3.15;1.60;;;;;;;;;;4150485;34;20103;-65
2021/05/05 06:25:06;;;;;;;2.80;1.50;;;;;;;;;;4151197;34;20156;-65
2021/05/05 06:27:32;;;;;;;2.00;1.80;;;;;;;;;;4149911;34;20127;-66
2021/05/05 06:29:58;;;;;;;3.28;1.70;;;;;;;;;;4150559;34;20111;-66
2021/05/05 06:32:24;;;;;;;2.25;1.40;;;;;;;;;;4150833;34;20158;-65
2021/05/05 06:34:51;;;;;;;2.03;1.70;;;;;;;;;;4138308;34;20134;-65
2021/05/05 06:37:17;;;;;;;3.87;1.60;;;;;;;;;;4126562;34;20100;-65
2021/05/05 06:39:44;;;;;;;1.90;1.65;;;;;;;;;;4133737;34;20139;-64
2021/05/05 06:42:10;;;;;;;5.53;1.60;;;;;;;;;;4133061;34;20503;-64
2021/05/05 06:44:36;;;;;;;1.73;1.42;;;;;;;;;;4136896;34;20190;-65
2021/05/05 06:47:02;;;;;;;2.12;1.40;;;;;;;;;;4136799;34;20108;-64
2021/05/05 06:49:29;;;;;;;1.60;1.50;;;;;;;;;;4136613;34;20227;-64
2021/05/05 06:51:55;;;;;;;1.60;1.50;;;;;;;;;;4136631;34;20183;-64
2021/05/05 06:54:21;;;;;;;1.58;1.40;;;;;;;;;;4137070;34;20190;-64
2021/05/05 06:56:47;;;;;;;2.30;1.40;;;;;;;;;;4136264;34;20096;-64
2021/05/05 06:59:12;;;;;;;3.67;1.60;;;;;;;;;;4136717;34;20560;-64
2021/05/05 07:01:39;;;;;;;1.73;1.62;;;;;;;;;;4136624;34;20131;-65
2021/05/05 07:04:09;;;;;;;2.03;1.60;;;;;;;;;;4136698;34;20091;-65
2021/05/05 07:06:35;;;;;;;2.37;1.60;;;;;;;;;;4136018;34;20171;-64
2021/05/05 07:09:02;;;;;;;1.60;1.50;;;;;;;;;;4137037;34;20118;-64
2021/05/05 07:11:27;;;;;;;1.65;1.55;;;;;;;;;;4136368;34;20115;-64
2021/05/05 07:13:54;;;;;;;2.87;1.48;;;;;;;;;;4136671;34;20154;-64
2021/05/05 07:16:21;;;;;;;2.37;1.73;;;;;;;;;;4136533;34;20541;-64
2021/05/05 07:18:49;;;;;;;5.65;1.85;;;;;;;;;;4136320;34;20268;-65
2021/05/05 07:21:16;;;;;;;3.08;1.42;;;;;;;;;;4136324;34;20135;-65
2021/05/05 07:23:43;;;;;;;2.65;1.40;;;;;;;;;;4136707;34;20234;-64
2021/05/05 07:26:10;;;;;;;2.37;1.40;;;;;;;;;;4136308;34;20602;-65
2021/05/05 07:28:37;;;;;;;2.20;1.65;;;;;;;;;;4139042;34;20105;-65
2021/05/05 07:31:03;;;;;;;2.10;1.48;;;;;;;;;;4142815;34;20128;-66
2021/05/05 07:33:30;;;;;;;4.60;1.50;;;;;;;;;;4123125;34;20452;-65
2021/05/05 07:35:57;;;;;;;2.67;1.45;;;;;;;;;;4110700;34;20164;-66
2021/05/05 07:38:46;;;;;;;2.15;1.40;;;;;;;;;;4123965;34;20116;-66
2021/05/05 07:46:40;;;;;;;3.10;1.70;;;;;;;;;;4114095;34;20112;-67
2021/05/05 07:49:07;;;;;;;2.22;1.40;;;;;;;;;;4114276;34;20269;-68
2021/05/05 07:51:33;;;;;;;1.62;1.52;;;;;;;;;;4124852;34;20587;-68
2021/05/05 07:53:59;;;;;;;2.90;1.40;;;;;;;;;;4125098;34;20134;-68
2021/05/05 07:56:25;;;;;;;1.52;1.42;;;;;;;;;;4124538;34;20110;-68
2021/05/05 07:58:51;;;;;;;1.52;1.42;;;;;;;;;;4124934;34;20124;-68
2021/05/05 08:01:17;;;;;;;2.70;1.50;;;;;;;;;;4124811;34;20119;-68
2021/05/05 08:03:43;;;;;;;3.00;1.55;;;;;;;;;;4112277;34;20198;-68
2021/05/05 08:06:09;;;;;;;4.95;1.50;;;;;;;;;;4124877;34;20123;-68
2021/05/05 08:08:35;;;;;;;2.72;1.30;;;;;;;;;;4124859;34;20576;-68
2021/05/05 08:11:01;;;;;;;2.65;1.33;;;;;;;;;;4124700;34;20120;-68
2021/05/05 08:13:27;;;;;;;1.33;1.25;;;;;;;;;;4124968;34;20484;-68
2021/05/05 08:15:54;;;;;;;3.03;1.40;;;;;;;;;;4112580;34;20130;-67
2021/05/05 08:18:20;;;;;;;1.65;1.45;;;;;;;;;;4127338;34;20111;-68
2021/05/05 08:20:47;;;;;;;3.47;1.50;;;;;;;;;;4124643;34;20145;-67
2021/05/05 08:23:16;;;;;;;4.60;1.45;;;;;;;;;;4124909;34;20151;-68
2021/05/05 08:25:42;;;;;;;1.40;1.30;;;;;;;;;;4124452;34;20130;-67
2021/05/05 08:28:08;;;;;;;1.40;1.30;;;;;;;;;;4123853;34;20120;-68
2021/05/05 08:30:34;;;;;;;2.67;1.35;;;;;;;;;;4151327;34;20153;-68
2021/05/05 08:33:00;;;;;;;3.10;1.50;;;;;;;;;;4151779;34;20107;-68
2021/05/05 08:35:26;;;;;;;2.67;1.58;;;;;;;;;;4151428;34;20121;-67
2021/05/05 08:37:52;;;;;;;2.80;1.50;;;;;;;;;;4151747;34;20122;-68
2021/05/05 08:40:19;;;;;;;1.80;1.60;;;;;;;;;;4151412;34;20123;-68
2021/05/05 08:42:45;;;;;;;3.37;1.50;;;;;;;;;;4151737;34;20130;-68
2021/05/05 08:45:21;;;;;;;2.25;1.73;;;;;;;;;;4151209;34;20134;-68
2021/05/05 08:47:48;;;;;;;2.20;1.70;;;;;;;;;;4140629;34;20131;-70
2021/05/05 08:50:16;;;;;;;3.40;1.70;;;;;;;;;;4151358;34;20210;-68
2021/05/05 08:52:42;;;;;;;4.07;1.48;;;;;;;;;;4139110;34;20119;-68
2021/05/05 08:55:09;;;;;;;2.53;1.50;;;;;;;;;;4151255;34;20142;-68
2021/05/05 08:57:35;;;;;;;3.05;1.40;;;;;;;;;;4151516;34;20100;-68
2021/05/05 09:00:03;;;;;;;4.30;1.50;;;;;;;;;;4151591;34;20138;-68
2021/05/05 09:02:29;;;;;;;1.40;1.30;;;;;;;;;;4151536;34;20440;-67
2021/05/05 09:05:04;;;;;;;2.33;1.30;;;;;;;;;;4151631;34;20110;-67
2021/05/05 09:07:32;;;;;;;1.58;1.40;;;;;;;;;;4151085;34;20087;-67
2021/05/05 09:10:09;;;;;;;2.55;1.40;;;;;;;;;;4140175;34;20118;-67
2021/05/05 09:12:37;;;;;;;1.98;1.40;;;;;;;;;;4151322;34;20115;-66
2021/05/05 09:15:19;;;;;;;3.90;1.48;;;;;;;;;;4150999;34;20118;-66
2021/05/05 09:17:52;;;;;;;5.03;1.70;;;;;;;;;;4151381;34;20546;-67
2021/05/05 09:20:21;;;;;;;2.58;1.62;;;;;;;;;;4151696;34;20115;-67
2021/05/05 09:22:55;;;;;;;3.22;1.87;;;;;;;;;;4151762;34;20528;-67
2021/05/05 09:25:31;;;;;;;3.87;1.80;;;;;;;;;;4151858;34;20111;-66
2021/05/05 09:28:12;;;;;;;2.87;1.42;;;;;;;;;;4151962;34;20281;-66
2021/05/05 09:30:44;;;;;;;3.40;1.42;;;;;;;;;;4151914;34;20099;-67
2021/05/05 09:33:10;;;;;;;3.22;1.50;;;;;;;;;;4151889;34;20119;-67
2021/05/05 09:35:40;;;;;;;4.57;1.70;;;;;;;;;;4139433;34;20573;-69
2021/05/05 09:38:10;;;;;;;4.12;2.05;;;;;;;;;;4152172;34;20133;-67
2021/05/05 09:40:53;;;;;;;2.80;1.67;;;;;;;;;;4139384;34;20130;-68
2021/05/05 09:43:18;;;;;;;2.95;1.80;;;;;;;;;;4138998;34;20220;-67
2021/05/05 09:45:44;;;;;;;4.05;1.55;;;;;;;;;;4151347;34;20564;-67
2021/05/05 09:48:11;;;;;;;2.22;1.45;;;;;;;;;;4151587;34;20108;-67
2021/05/05 09:50:39;;;;;;;1.50;1.40;;;;;;;;;;4151655;34;20130;-67
2021/05/05 09:53:32;;;;;;;4.40;1.87;;;;;;;;;;4151376;34;20121;-66
2021/05/05 09:55:58;;;;;;;2.17;1.67;;;;;;;;;;4147936;34;20104;-66
2021/05/05 09:58:25;;;;;;;2.83;2.00;;;;;;;;;;4151643;34;20194;-67
2021/05/05 10:01:10;;;;;;;3.10;1.83;;;;;;;;;;4151220;34;20541;-66
2021/05/05 10:03:52;;;;;;;6.00;1.80;;;;;;;;;;4151332;34;20535;-67
2021/05/05 10:06:22;;;;;;;4.20;1.70;;;;;;;;;;4138659;34;20095;-68
2021/05/05 10:08:53;;;;;;;4.03;1.60;;;;;;;;;;4146647;34;20111;-67
2021/05/05 10:11:24;;;;;;;3.42;1.70;;;;;;;;;;4126473;34;20119;-66
2021/05/05 10:13:58;;;;;;;5.00;2.12;;;;;;;;;;4125845;34;20215;-66
2021/05/05 10:16:25;;;;;;;3.42;1.60;;;;;;;;;;4125487;34;20096;-67
2021/05/05 10:18:51;;;;;;;3.35;1.70;;;;;;;;;;4139322;34;20540;-67
2021/05/05 10:21:21;;;;;;;4.95;1.50;;;;;;;;;;4129824;34;20254;-67
2021/05/05 10:23:47;;;;;;;1.48;1.37;;;;;;;;;;4136764;34;20472;-67
2021/05/05 10:26:14;;;;;;;1.60;1.50;;;;;;;;;;4136750;34;20099;-68
2021/05/05 10:28:40;;;;;;;2.65;1.70;;;;;;;;;;4124151;34;20118;-66
2021/05/05 10:31:16;;;;;;;1.75;1.40;;;;;;;;;;4123804;34;20513;-66
2021/05/05 10:33:45;;;;;;;1.77;1.60;;;;;;;;;;4124171;34;20221;-67
2021/05/05 10:36:34;;;;;;;1.90;1.50;;;;;;;;;;4124578;34;20106;-68
2021/05/05 10:39:02;;;;;;;2.97;1.75;;;;;;;;;;4134340;34;20476;-67
2021/05/05 10:41:28;;;;;;;4.50;2.00;;;;;;;;;;4123551;34;20107;-67
2021/05/05 10:43:59;;;;;;;2.72;2.00;;;;;;;;;;4111123;34;20149;-67
2021/05/05 10:46:32;;;;;;;4.25;2.25;;;;;;;;;;4123491;34;20096;-67
2021/05/05 10:49:02;;;;;;;3.92;1.87;;;;;;;;;;4125820;34;20114;-68
2021/05/05 10:51:48;;;;;;;2.15;1.80;;;;;;;;;;4124154;34;20156;-68
2021/05/05 10:54:18;;;;;;;2.05;1.65;;;;;;;;;;4124489;34;20140;-68
2021/05/05 10:57:08;;;;;;;1.90;1.60;;;;;;;;;;4124376;34;20545;-68
2021/05/05 11:00:11;;;;;;;2.00;1.80;;;;;;;;;;4123839;34;20159;-70
2021/05/05 11:03:01;;;;;;;3.53;2.10;;;;;;;;;;4109375;34;20139;-68
2021/05/05 11:05:30;;;;;;;2.42;1.90;;;;;;;;;;4144721;34;20182;-68
2021/05/05 11:08:06;;;;;;;2.22;1.87;;;;;;;;;;4145396;34;20099;-69
2021/05/05 11:10:32;;;;;;;4.00;1.80;;;;;;;;;;4145834;34;20103;-67
2021/05/05 11:12:58;;;;;;;1.73;1.58;;;;;;;;;;4139573;34;20151;-66
2021/05/05 11:15:43;;;;;;;5.20;1.75;;;;;;;;;;4137667;34;20159;-67
2021/05/05 11:18:28;;;;;;;2.72;1.70;;;;;;;;;;4137713;34;20127;-67
2021/05/05 11:20:59;;;;;;;4.53;2.00;;;;;;;;;;4136828;34;20119;-67
2021/05/05 11:23:42;;;;;;;2.12;1.75;;;;;;;;;;4136937;34;20108;-67
2021/05/05 11:26:43;;;;;;;1.70;1.60;;;;;;;;;;4136832;34;20166;-67
2021/05/05 11:29:12;;;;;;;5.25;1.90;;;;;;;;;;4122447;34;20119;-67
2021/05/05 11:31:47;;;;;;;4.68;1.67;;;;;;;;;;4123599;34;20100;-67
2021/05/05 11:34:23;;;;;;;1.83;1.48;;;;;;;;;;4123405;34;20191;-67
2021/05/05 11:36:58;;;;;;;2.08;1.58;;;;;;;;;;4122950;34;20111;-67
2021/05/05 11:39:34;;;;;;;2.15;1.75;;;;;;;;;;4123095;34;20134;-67
2021/05/05 11:42:02;;;;;;;2.15;1.52;;;;;;;;;;4122980;34;20131;-66
2021/05/05 11:44:52;;;;;;;2.05;1.50;;;;;;;;;;4123051;34;20123;-67
2021/05/05 11:47:19;;;;;;;6.32;1.87;;;;;;;;;;4114794;34;20480;-67
2021/05/05 11:49:50;;;;;;;2.87;1.75;;;;;;;;;;4123133;34;20103;-66
2021/05/05 11:52:21;;;;;;;4.10;1.50;;;;;;;;;;4122990;34;20456;-66
2021/05/05 11:54:57;;;;;;;2.33;1.70;;;;;;;;;;4110709;34;20096;-66
2021/05/05 11:57:24;;;;;;;2.67;1.90;;;;;;;;;;4122813;34;20456;-67
2021/05/05 11:59:51;;;;;;;4.30;1.67;;;;;;;;;;4122967;34;20119;-66
2021/05/05 12:02:18;;;;;;;6.22;2.05;;;;;;;;;;4111149;34;20106;-66
2021/05/05 12:04:44;;;;;;;3.72;2.10;;;;;;;;;;4123800;34;20120;-66
2021/05/05 12:07:11;;;;;;;5.28;1.98;;;;;;;;;;4123502;34;20135;-64
2021/05/05 12:09:38;;;;;;;2.72;1.65;;;;;;;;;;4122784;34;20124;-65
2021/05/05 12:12:08;;;;;;;2.37;1.60;;;;;;;;;;4123010;34;20531;-64
2021/05/05 12:14:34;;;;;;;4.15;1.70;;;;;;;;;;4122758;34;20131;-64
2021/05/05 12:19:57;;;;;;;6.00;1.77;;;;;;;;;;4122502;34;20523;-65
2021/05/05 12:22:24;;;;;;;6.40;1.83;;;;;;;;;;4122669;34;20444;-65
2021/05/05 12:25:11;;;;;;;1.92;1.60;;;;;;;;;;4123382;34;20112;-65
2021/05/05 12:27:38;;;;;;;3.53;1.75;;;;;;;;;;4124589;34;20457;-64
2021/05/05 12:30:07;;;;;;;2.67;1.95;;;;;;;;;;4132315;34;20127;-63
2021/05/05 12:32:46;;;;;;;3.35;2.20;;;;;;;;;;4122305;34;20112;-65
2021/05/05 12:35:20;;;;;;;2.53;1.87;;;;;;;;;;4132749;34;20547;-64
2021/05/05 12:37:46;;;;;;;3.62;1.77;;;;;;;;;;4138315;34;20092;-64
2021/05/05 12:40:12;;;;;;;3.37;1.70;;;;;;;;;;4125357;34;20195;-65
2021/05/05 12:42:38;;;;;;;3.10;1.70;;;;;;;;;;4138035;34;20637;-65
2021/05/05 12:45:11;;;;;;;2.62;1.98;;;;;;;;;;4137730;34;20161;-65
2021/05/05 12:47:38;;;;;;;2.12;1.67;;;;;;;;;;4137603;34;20479;-65
2021/05/05 12:50:05;;;;;;;3.40;1.90;;;;;;;;;;4138062;34;20170;-64
2021/05/05 12:52:34;;;;;;;3.12;1.77;;;;;;;;;;4132967;34;20119;-65
2021/05/05 12:55:03;;;;;;;6.40;2.10;;;;;;;;;;4134037;34;20133;-65
2021/05/05 12:57:30;;;;;;;2.33;1.77;;;;;;;;;;4137863;34;20136;-64
2021/05/05 12:59:56;;;;;;;3.67;1.87;;;;;;;;;;4137382;34;20119;-63
2021/05/05 13:02:27;;;;;;;2.87;1.70;;;;;;;;;;4137817;34;20561;-63
2021/05/05 13:05:04;;;;;;;2.80;1.80;;;;;;;;;;4125894;34;20535;-64
2021/05/05 13:07:37;;;;;;;4.07;1.92;;;;;;;;;;4137941;34;20111;-64
2021/05/05 13:10:05;;;;;;;2.12;1.62;;;;;;;;;;4126036;34;20539;-64
2021/05/05 13:12:43;;;;;;;2.20;1.67;;;;;;;;;;4137943;34;20159;-64
2021/05/05 13:15:52;;;;;;;2.20;1.80;;;;;;;;;;4137809;34;20539;-64
2021/05/05 13:30:44;;;;;;;4.25;1.80;;;;;;;;;;4146814;34;20215;-66
2021/05/05 13:33:09;;;;;;;3.65;1.65;;;;;;;;;;4142807;34;20126;-65
2021/05/05 13:35:58;;;;;;;2.67;1.73;;;;;;;;;;4150032;34;20133;-68
2021/05/05 13:38:31;;;;;;;3.50;1.87;;;;;;;;;;4139421;34;20141;-68
2021/05/05 13:41:01;;;;;;;3.83;1.70;;;;;;;;;;4150268;34;20091;-69
2021/05/05 13:43:36;;;;;;;3.92;1.87;;;;;;;;;;4151060;34;20127;-68
2021/05/05 13:46:14;;;;;;;4.05;1.83;;;;;;;;;;4129775;34;20110;-68
2021/05/05 13:48:43;;;;;;;3.12;1.92;;;;;;;;;;4137619;34;20597;-69
2021/05/05 13:51:11;;;;;;;2.62;1.90;;;;;;;;;;4137665;34;20281;-69
2021/05/05 13:53:37;;;;;;;2.30;2.10;;;;;;;;;;4138935;34;20264;-68
2021/05/05 13:56:04;;;;;;;3.65;2.10;;;;;;;;;;4137717;34;20543;-68
2021/05/05 13:58:31;;;;;;;5.95;2.15;;;;;;;;;;4137657;34;20110;-68
2021/05/05 14:00:57;;;;;;;3.00;2.00;;;;;;;;;;4137691;34;20127;-68
2021/05/05 14:03:24;;;;;;;4.40;1.80;;;;;;;;;;4130388;34;20220;-65
2021/05/05 14:05:55;;;;;;;2.87;1.80;;;;;;;;;;4137863;34;20112;-64
2021/05/05 14:08:21;;;;;;;2.35;1.75;;;;;;;;;;4126065;34;20111;-64
2021/05/05 14:10:47;;;;;;;3.62;2.15;;;;;;;;;;4137859;34;20107;-64
2021/05/05 14:13:13;;;;;;;4.28;2.03;;;;;;;;;;4137271;34;20535;-65
2021/05/05 14:15:40;;;;;;;2.40;1.75;;;;;;;;;;4124252;34;20128;-64
2021/05/05 14:18:06;;;;;;;3.45;2.12;;;;;;;;;;4120319;34;20489;-64
2021/05/05 14:20:33;;;;;;;2.08;1.62;;;;;;;;;;4136911;34;20115;-64
2021/05/05 14:22:59;;;;;;;4.82;1.90;;;;;;;;;;4137297;34;20206;-64
2021/05/05 14:25:28;;;;;;;2.78;1.98;;;;;;;;;;4136962;34;20127;-64
2021/05/05 14:27:54;;;;;;;6.40;2.35;;;;;;;;;;4137061;34;20144;-64
2021/05/05 14:30:21;;;;;;;3.03;2.10;;;;;;;;;;4136717;34;20214;-63
2021/05/05 14:32:47;;;;;;;4.18;2.10;;;;;;;;;;4150401;34;20095;-65
2021/05/05 14:35:14;;;;;;;3.92;2.55;;;;;;;;;;4137923;34;20127;-63
2021/05/05 14:37:41;;;;;;;3.95;1.87;;;;;;;;;;4150610;34;20529;-64
2021/05/05 14:40:08;;;;;;;2.22;1.80;;;;;;;;;;4150502;34;20537;-63
2021/05/05 14:42:38;;;;;;;4.57;1.85;;;;;;;;;;4150330;34;20532;-63
2021/05/05 14:50:17;;;;;;;3.15;1.70;;;;;;;;;;4150923;34;20146;-65
2021/05/05 14:52:44;;;;;;;5.00;1.85;;;;;;;;;;4150671;34;20627;-65
2021/05/05 14:55:11;;;;;;;5.07;1.92;;;;;;;;;;4137834;34;20106;-66
2021/05/05 14:57:40;;;;;;;16.95;4.32;;;;;;;;;;4150607;34;20540;-65
2021/05/05 15:00:07;;;;;;;2.40;1.80;;;;;;;;;;4149934;34;20206;-66
2021/05/05 15:02:33;;;;;;;6.85;2.03;;;;;;;;;;4150131;34;20209;-66
2021/05/05 15:04:59;;;;;;;2.00;1.70;;;;;;;;;;4150164;34;20104;-66
2021/05/05 15:07:26;;;;;;;3.37;2.12;;;;;;;;;;4150157;34;20127;-67
2021/05/05 15:12:58;;;;;;;5.50;2.03;;;;;;;;;;4153891;34;20084;-66
2021/05/05 15:15:39;;;;;;;5.37;2.33;;;;;;;;;;4139147;34;20142;-67
2021/05/05 15:35:15;;;;;;;4.30;1.95;;;;;;;;;;4132673;34;20456;-68
2021/05/05 15:40:20;;;;;;;6.25;1.98;;;;;;;;;;4128351;34;20145;-71
2021/05/05 15:42:46;;;;;;;6.03;1.92;;;;;;;;;;4124065;34;20131;-69
2021/05/05 15:45:13;;;;;;;4.80;2.00;;;;;;;;;;4124395;34;20487;-68
2021/05/05 15:47:40;;;;;;;2.95;2.10;;;;;;;;;;4124841;34;20115;-68
2021/05/05 15:50:09;;;;;;;3.12;1.85;;;;;;;;;;4123147;34;20115;-67
2021/05/05 15:52:42;;;;;;;2.50;2.05;;;;;;;;;;4101348;34;20198;-69
2021/05/05 15:55:08;;;;;;;4.37;1.90;;;;;;;;;;4122271;34;20526;-67
2021/05/05 15:57:37;;;;;;;3.37;2.05;;;;;;;;;;4139459;34;20107;-67
2021/05/05 16:00:13;;;;;;;4.47;2.05;;;;;;;;;;4140495;34;20096;-66
2021/05/05 16:02:57;;;;;;;6.18;2.40;;;;;;;;;;4141735;34;20123;-72
2021/05/05 16:16:01;;;;;;;3.42;1.83;;;;;;;;;;4138535;34;20154;-66